sensor_id;sensor_type;location;lat;lon;timestamp;temperature;humidity
25024;DHT22;13033;50.936;5.334;2022-11-14T00:00:30;7.10;99.90
25024;DHT22;13033;50.936;5.334;2022-11-14T00:03:00;7.00;99.90
25024;DHT22;13033;50.936;5.334;2022-11-14T00:05:26;7.50;99.90
25024;DHT22;13033;50.936;5.334;2022-11-14T00:07:52;7.40;99.90
25024;DHT22;13033;50.936;5.334;2022-11-14T00:10:18;7.10;99.90
25024;DHT22;13033;50.936;5.334;2022-11-14T00:12:44;7.00;99.90
25024;DHT22;13033;50.936;5.334;2022-11-14T00:15:10;7.00;99.90
25024;DHT22;13033;50.936;5.334;2022-11-14T00:17:36;6.80;99.90
25024;DHT22;13033;50.936;5.334;2022-11-14T00:20:03;6.70;99.90
25024;DHT22;13033;50.936;5.334;2022-11-14T00:22:29;6.60;99.90
25024;DHT22;13033;50.936;5.334;2022-11-14T00:24:55;6.50;99.90
25024;DHT22;13033;50.936;5.334;2022-11-14T00:27:20;6.60;99.90
25024;DHT22;13033;50.936;5.334;2022-11-14T00:29:46;6.70;99.90
25024;DHT22;13033;50.936;5.334;2022-11-14T00:32:11;6.60;99.90
25024;DHT22;13033;50.936;5.334;2022-11-14T00:34:37;6.60;99.90
25024;DHT22;13033;50.936;5.334;2022-11-14T00:37:03;6.60;99.90
25024;DHT22;13033;50.936;5.334;2022-11-14T00:39:28;6.70;99.90
25024;DHT22;13033;50.936;5.334;2022-11-14T00:41:54;6.70;99.90
25024;DHT22;13033;50.936;5.334;2022-11-14T00:44:20;6.70;99.90
25024;DHT22;13033;50.936;5.334;2022-11-14T00:46:45;6.60;99.90
25024;DHT22;13033;50.936;5.334;2022-11-14T00:49:11;6.50;99.90
25024;DHT22;13033;50.936;5.334;2022-11-14T00:51:37;6.50;99.90
25024;DHT22;13033;50.936;5.334;2022-11-14T00:54:02;6.60;99.90
25024;DHT22;13033;50.936;5.334;2022-11-14T00:56:28;6.40;99.90
25024;DHT22;13033;50.936;5.334;2022-11-14T00:58:54;6.30;99.90
25024;DHT22;13033;50.936;5.334;2022-11-14T01:01:19;6.30;99.90
25024;DHT22;13033;50.936;5.334;2022-11-14T01:03:49;6.40;99.90
25024;DHT22;13033;50.936;5.334;2022-11-14T01:06:16;6.40;99.90
25024;DHT22;13033;50.936;5.334;2022-11-14T01:08:42;6.30;99.90
25024;DHT22;13033;50.936;5.334;2022-11-14T01:11:14;6.30;99.90
25024;DHT22;13033;50.936;5.334;2022-11-14T01:13:41;6.40;99.90
25024;DHT22;13033;50.936;5.334;2022-11-14T01:16:07;6.40;99.90
25024;DHT22;13033;50.936;5.334;2022-11-14T01:18:33;6.30;99.90
25024;DHT22;13033;50.936;5.334;2022-11-14T01:20:59;6.30;99.90
25024;DHT22;13033;50.936;5.334;2022-11-14T01:23:25;6.30;99.90
25024;DHT22;13033;50.936;5.334;2022-11-14T01:25:50;6.20;99.90
25024;DHT22;13033;50.936;5.334;2022-11-14T01:28:18;6.00;99.90
25024;DHT22;13033;50.936;5.334;2022-11-14T01:30:44;6.00;99.90
25024;DHT22;13033;50.936;5.334;2022-11-14T01:33:10;6.10;99.90
25024;DHT22;13033;50.936;5.334;2022-11-14T01:35:37;6.10;99.90
25024;DHT22;13033;50.936;5.334;2022-11-14T01:38:04;6.00;99.90
25024;DHT22;13033;50.936;5.334;2022-11-14T01:40:32;5.90;99.90
25024;DHT22;13033;50.936;5.334;2022-11-14T01:53:57;5.80;99.90
25024;DHT22;13033;50.936;5.334;2022-11-14T01:56:35;5.90;99.90
25024;DHT22;13033;50.936;5.334;2022-11-14T01:59:14;6.00;99.90
25024;DHT22;13033;50.936;5.334;2022-11-14T02:01:47;6.10;99.90
25024;DHT22;13033;50.936;5.334;2022-11-14T02:04:26;6.20;99.90
25024;DHT22;13033;50.936;5.334;2022-11-14T02:06:55;6.20;99.90
25024;DHT22;13033;50.936;5.334;2022-11-14T02:09:22;6.20;99.90
25024;DHT22;13033;50.936;5.334;2022-11-14T02:11:48;6.10;99.90
25024;DHT22;13033;50.936;5.334;2022-11-14T02:14:14;5.80;99.90
25024;DHT22;13033;50.936;5.334;2022-11-14T02:16:40;5.70;99.90
25024;DHT22;13033;50.936;5.334;2022-11-14T02:19:07;5.60;99.90
25024;DHT22;13033;50.936;5.334;2022-11-14T02:21:33;5.60;99.90
25024;DHT22;13033;50.936;5.334;2022-11-14T02:23:59;5.60;99.90
25024;DHT22;13033;50.936;5.334;2022-11-14T02:26:25;5.50;99.90
25024;DHT22;13033;50.936;5.334;2022-11-14T02:28:50;5.40;99.90
25024;DHT22;13033;50.936;5.334;2022-11-14T02:31:16;5.50;99.90
25024;DHT22;13033;50.936;5.334;2022-11-14T02:33:42;5.40;99.90
25024;DHT22;13033;50.936;5.334;2022-11-14T02:36:08;5.40;99.90
25024;DHT22;13033;50.936;5.334;2022-11-14T02:38:34;5.40;99.90
25024;DHT22;13033;50.936;5.334;2022-11-14T02:41:00;5.40;99.90
25024;DHT22;13033;50.936;5.334;2022-11-14T02:43:25;5.40;99.90
25024;DHT22;13033;50.936;5.334;2022-11-14T02:45:51;5.40;99.90
25024;DHT22;13033;50.936;5.334;2022-11-14T02:48:17;5.40;99.90
25024;DHT22;13033;50.936;5.334;2022-11-14T02:50:43;5.60;99.90
25024;DHT22;13033;50.936;5.334;2022-11-14T02:53:09;5.60;99.90
25024;DHT22;13033;50.936;5.334;2022-11-14T02:55:35;5.60;99.90
25024;DHT22;13033;50.936;5.334;2022-11-14T02:58:00;5.50;99.90
25024;DHT22;13033;50.936;5.334;2022-11-14T03:00:26;5.40;99.90
25024;DHT22;13033;50.936;5.334;2022-11-14T03:02:52;5.20;99.90
25024;DHT22;13033;50.936;5.334;2022-11-14T03:05:19;5.30;99.90
25024;DHT22;13033;50.936;5.334;2022-11-14T03:07:44;5.30;99.90
25024;DHT22;13033;50.936;5.334;2022-11-14T03:10:10;5.30;99.90
25024;DHT22;13033;50.936;5.334;2022-11-14T03:12:38;5.40;99.90
25024;DHT22;13033;50.936;5.334;2022-11-14T03:15:05;5.60;99.90
25024;DHT22;13033;50.936;5.334;2022-11-14T03:17:32;5.70;99.90
25024;DHT22;13033;50.936;5.334;2022-11-14T03:19:58;5.50;99.90
25024;DHT22;13033;50.936;5.334;2022-11-14T03:22:25;5.30;99.90
25024;DHT22;13033;50.936;5.334;2022-11-14T03:24:51;5.30;99.90
25024;DHT22;13033;50.936;5.334;2022-11-14T03:27:17;5.20;99.90
25024;DHT22;13033;50.936;5.334;2022-11-14T03:29:43;5.40;99.90
25024;DHT22;13033;50.936;5.334;2022-11-14T03:32:08;5.40;99.90
25024;DHT22;13033;50.936;5.334;2022-11-14T03:34:34;5.40;99.90
25024;DHT22;13033;50.936;5.334;2022-11-14T03:37:00;5.30;99.90
25024;DHT22;13033;50.936;5.334;2022-11-14T03:39:26;5.30;99.90
25024;DHT22;13033;50.936;5.334;2022-11-14T03:41:51;5.20;99.90
25024;DHT22;13033;50.936;5.334;2022-11-14T03:44:17;5.30;99.90
25024;DHT22;13033;50.936;5.334;2022-11-14T03:46:43;5.40;99.90
25024;DHT22;13033;50.936;5.334;2022-11-14T03:49:08;5.40;99.90
25024;DHT22;13033;50.936;5.334;2022-11-14T03:51:34;5.50;99.90
25024;DHT22;13033;50.936;5.334;2022-11-14T03:54:01;5.50;99.90
25024;DHT22;13033;50.936;5.334;2022-11-14T03:56:26;5.40;99.90
25024;DHT22;13033;50.936;5.334;2022-11-14T03:58:52;5.50;99.90
25024;DHT22;13033;50.936;5.334;2022-11-14T04:01:18;5.40;99.90
25024;DHT22;13033;50.936;5.334;2022-11-14T04:03:43;5.40;99.90
25024;DHT22;13033;50.936;5.334;2022-11-14T04:06:09;5.30;99.90
25024;DHT22;13033;50.936;5.334;2022-11-14T04:08:34;5.30;99.90
25024;DHT22;13033;50.936;5.334;2022-11-14T04:11:00;5.20;99.90
25024;DHT22;13033;50.936;5.334;2022-11-14T04:13:26;5.20;99.90
25024;DHT22;13033;50.936;5.334;2022-11-14T04:15:56;5.10;99.90
25024;DHT22;13033;50.936;5.334;2022-11-14T04:18:23;5.30;99.90
25024;DHT22;13033;50.936;5.334;2022-11-14T04:20:48;5.20;99.90
25024;DHT22;13033;50.936;5.334;2022-11-14T04:23:14;5.20;99.90
25024;DHT22;13033;50.936;5.334;2022-11-14T04:25:44;5.30;99.90
25024;DHT22;13033;50.936;5.334;2022-11-14T04:28:10;5.30;99.90
25024;DHT22;13033;50.936;5.334;2022-11-14T04:30:35;5.30;99.90
25024;DHT22;13033;50.936;5.334;2022-11-14T04:33:01;5.30;99.90
25024;DHT22;13033;50.936;5.334;2022-11-14T04:35:27;5.40;99.90
25024;DHT22;13033;50.936;5.334;2022-11-14T04:37:52;5.30;99.90
25024;DHT22;13033;50.936;5.334;2022-11-14T04:40:18;5.20;99.90
25024;DHT22;13033;50.936;5.334;2022-11-14T04:42:43;5.30;99.90
25024;DHT22;13033;50.936;5.334;2022-11-14T04:45:09;5.30;99.90
25024;DHT22;13033;50.936;5.334;2022-11-14T04:47:35;5.30;99.90
25024;DHT22;13033;50.936;5.334;2022-11-14T04:50:02;5.30;99.90
25024;DHT22;13033;50.936;5.334;2022-11-14T04:52:28;5.30;99.90
25024;DHT22;13033;50.936;5.334;2022-11-14T04:54:53;5.10;99.90
25024;DHT22;13033;50.936;5.334;2022-11-14T04:57:19;5.30;99.90
25024;DHT22;13033;50.936;5.334;2022-11-14T04:59:45;5.20;99.90
25024;DHT22;13033;50.936;5.334;2022-11-14T05:02:10;5.30;99.90
25024;DHT22;13033;50.936;5.334;2022-11-14T05:04:36;5.20;99.90
25024;DHT22;13033;50.936;5.334;2022-11-14T05:07:02;5.20;99.90
25024;DHT22;13033;50.936;5.334;2022-11-14T05:09:28;5.30;99.90
25024;DHT22;13033;50.936;5.334;2022-11-14T05:11:53;5.30;99.90
25024;DHT22;13033;50.936;5.334;2022-11-14T05:14:19;5.20;99.90
25024;DHT22;13033;50.936;5.334;2022-11-14T05:16:44;5.10;99.90
25024;DHT22;13033;50.936;5.334;2022-11-14T05:19:10;5.00;99.90
25024;DHT22;13033;50.936;5.334;2022-11-14T05:21:36;5.10;99.90
25024;DHT22;13033;50.936;5.334;2022-11-14T05:24:01;5.10;99.90
25024;DHT22;13033;50.936;5.334;2022-11-14T05:26:27;5.30;99.90
25024;DHT22;13033;50.936;5.334;2022-11-14T05:28:53;5.30;99.90
25024;DHT22;13033;50.936;5.334;2022-11-14T05:31:18;5.50;99.90
25024;DHT22;13033;50.936;5.334;2022-11-14T05:33:44;5.50;99.90
25024;DHT22;13033;50.936;5.334;2022-11-14T05:36:15;5.50;99.90
25024;DHT22;13033;50.936;5.334;2022-11-14T05:38:41;5.30;99.90
25024;DHT22;13033;50.936;5.334;2022-11-14T05:41:10;5.10;99.90
25024;DHT22;13033;50.936;5.334;2022-11-14T05:43:35;5.20;99.90
25024;DHT22;13033;50.936;5.334;2022-11-14T05:46:03;5.10;99.90
25024;DHT22;13033;50.936;5.334;2022-11-14T05:48:29;5.00;99.90
25024;DHT22;13033;50.936;5.334;2022-11-14T05:51:00;4.70;99.90
25024;DHT22;13033;50.936;5.334;2022-11-14T05:53:27;4.80;99.90
25024;DHT22;13033;50.936;5.334;2022-11-14T05:55:54;4.80;99.90
25024;DHT22;13033;50.936;5.334;2022-11-14T05:58:20;4.90;99.90
25024;DHT22;13033;50.936;5.334;2022-11-14T06:00:46;4.80;99.90
25024;DHT22;13033;50.936;5.334;2022-11-14T06:03:12;4.70;99.90
25024;DHT22;13033;50.936;5.334;2022-11-14T06:05:40;4.80;99.90
25024;DHT22;13033;50.936;5.334;2022-11-14T06:08:06;4.90;99.90
25024;DHT22;13033;50.936;5.334;2022-11-14T06:10:34;5.10;99.90
25024;DHT22;13033;50.936;5.334;2022-11-14T06:13:00;5.00;99.90
25024;DHT22;13033;50.936;5.334;2022-11-14T06:15:26;4.80;99.90
25024;DHT22;13033;50.936;5.334;2022-11-14T06:17:53;4.70;99.90
25024;DHT22;13033;50.936;5.334;2022-11-14T06:20:19;4.60;99.90
25024;DHT22;13033;50.936;5.334;2022-11-14T06:22:45;4.50;99.90
25024;DHT22;13033;50.936;5.334;2022-11-14T06:25:10;4.40;99.90
25024;DHT22;13033;50.936;5.334;2022-11-14T06:27:36;4.40;99.90
25024;DHT22;13033;50.936;5.334;2022-11-14T06:30:02;4.40;99.90
25024;DHT22;13033;50.936;5.334;2022-11-14T06:32:28;4.40;99.90
25024;DHT22;13033;50.936;5.334;2022-11-14T06:34:53;4.40;99.90
25024;DHT22;13033;50.936;5.334;2022-11-14T06:37:19;4.40;99.90
25024;DHT22;13033;50.936;5.334;2022-11-14T06:39:45;4.30;99.90
25024;DHT22;13033;50.936;5.334;2022-11-14T06:42:10;4.30;99.90
25024;DHT22;13033;50.936;5.334;2022-11-14T06:44:36;4.30;99.90
25024;DHT22;13033;50.936;5.334;2022-11-14T06:47:02;4.20;99.90
25024;DHT22;13033;50.936;5.334;2022-11-14T06:49:27;4.20;99.90
25024;DHT22;13033;50.936;5.334;2022-11-14T06:51:53;4.10;99.90
25024;DHT22;13033;50.936;5.334;2022-11-14T06:54:19;4.20;99.90
25024;DHT22;13033;50.936;5.334;2022-11-14T06:56:45;4.30;99.90
25024;DHT22;13033;50.936;5.334;2022-11-14T06:59:11;4.40;99.90
25024;DHT22;13033;50.936;5.334;2022-11-14T07:01:37;4.50;99.90
25024;DHT22;13033;50.936;5.334;2022-11-14T07:04:02;4.60;99.90
25024;DHT22;13033;50.936;5.334;2022-11-14T07:06:29;4.50;99.90
25024;DHT22;13033;50.936;5.334;2022-11-14T07:08:56;4.40;99.90
25024;DHT22;13033;50.936;5.334;2022-11-14T07:11:24;4.40;99.90
25024;DHT22;13033;50.936;5.334;2022-11-14T07:14:01;4.40;99.90
25024;DHT22;13033;50.936;5.334;2022-11-14T07:16:33;4.50;99.90
25024;DHT22;13033;50.936;5.334;2022-11-14T07:19:03;4.50;99.90
25024;DHT22;13033;50.936;5.334;2022-11-14T07:21:30;4.60;99.90
25024;DHT22;13033;50.936;5.334;2022-11-14T07:23:56;4.50;99.90
25024;DHT22;13033;50.936;5.334;2022-11-14T07:26:22;4.50;99.90
25024;DHT22;13033;50.936;5.334;2022-11-14T07:28:48;4.60;99.90
25024;DHT22;13033;50.936;5.334;2022-11-14T07:31:16;4.60;99.90
25024;DHT22;13033;50.936;5.334;2022-11-14T07:33:42;4.60;99.90
25024;DHT22;13033;50.936;5.334;2022-11-14T07:36:09;4.70;99.90
25024;DHT22;13033;50.936;5.334;2022-11-14T07:38:36;4.90;99.90
25024;DHT22;13033;50.936;5.334;2022-11-14T07:41:05;4.90;99.90
25024;DHT22;13033;50.936;5.334;2022-11-14T07:43:31;5.00;99.90
25024;DHT22;13033;50.936;5.334;2022-11-14T07:46:04;5.10;99.90
25024;DHT22;13033;50.936;5.334;2022-11-14T07:48:30;5.30;99.90
25024;DHT22;13033;50.936;5.334;2022-11-14T07:51:00;5.40;99.90
25024;DHT22;13033;50.936;5.334;2022-11-14T07:53:27;5.50;99.90
25024;DHT22;13033;50.936;5.334;2022-11-14T07:55:52;5.40;99.90
25024;DHT22;13033;50.936;5.334;2022-11-14T07:58:18;5.30;99.90
25024;DHT22;13033;50.936;5.334;2022-11-14T08:00:44;5.30;99.90
25024;DHT22;13033;50.936;5.334;2022-11-14T08:03:10;5.40;99.90
25024;DHT22;13033;50.936;5.334;2022-11-14T08:05:36;5.60;99.90
25024;DHT22;13033;50.936;5.334;2022-11-14T08:08:02;5.70;99.90
25024;DHT22;13033;50.936;5.334;2022-11-14T08:10:28;5.90;99.90
25024;DHT22;13033;50.936;5.334;2022-11-14T08:12:58;6.00;99.90
25024;DHT22;13033;50.936;5.334;2022-11-14T08:15:25;6.10;99.90
25024;DHT22;13033;50.936;5.334;2022-11-14T08:17:50;6.10;99.90
25024;DHT22;13033;50.936;5.334;2022-11-14T08:20:16;6.10;99.90
25024;DHT22;13033;50.936;5.334;2022-11-14T08:22:42;6.20;99.90
25024;DHT22;13033;50.936;5.334;2022-11-14T08:25:08;6.50;99.90
25024;DHT22;13033;50.936;5.334;2022-11-14T08:27:33;6.70;99.90
25024;DHT22;13033;50.936;5.334;2022-11-14T08:29:59;6.70;99.90
25024;DHT22;13033;50.936;5.334;2022-11-14T08:32:25;6.70;99.90
25024;DHT22;13033;50.936;5.334;2022-11-14T08:34:50;6.60;99.90
25024;DHT22;13033;50.936;5.334;2022-11-14T08:37:16;6.70;99.90
25024;DHT22;13033;50.936;5.334;2022-11-14T08:39:41;6.70;99.90
25024;DHT22;13033;50.936;5.334;2022-11-14T08:42:07;6.80;99.90
25024;DHT22;13033;50.936;5.334;2022-11-14T08:44:32;6.90;99.90
25024;DHT22;13033;50.936;5.334;2022-11-14T08:46:58;7.10;99.90
25024;DHT22;13033;50.936;5.334;2022-11-14T08:49:25;7.20;99.90
25024;DHT22;13033;50.936;5.334;2022-11-14T08:51:51;7.20;99.90
25024;DHT22;13033;50.936;5.334;2022-11-14T08:54:18;7.30;99.90
25024;DHT22;13033;50.936;5.334;2022-11-14T08:56:43;7.30;99.90
25024;DHT22;13033;50.936;5.334;2022-11-14T08:59:09;7.30;99.90
25024;DHT22;13033;50.936;5.334;2022-11-14T09:01:35;7.50;99.90
25024;DHT22;13033;50.936;5.334;2022-11-14T09:04:01;7.60;99.90
25024;DHT22;13033;50.936;5.334;2022-11-14T09:06:27;7.70;99.90
25024;DHT22;13033;50.936;5.334;2022-11-14T09:08:53;7.90;99.90
25024;DHT22;13033;50.936;5.334;2022-11-14T09:11:18;8.00;99.90
25024;DHT22;13033;50.936;5.334;2022-11-14T09:13:44;8.10;99.90
25024;DHT22;13033;50.936;5.334;2022-11-14T09:16:10;8.10;99.90
25024;DHT22;13033;50.936;5.334;2022-11-14T09:18:36;8.20;99.90
25024;DHT22;13033;50.936;5.334;2022-11-14T09:21:07;8.40;99.90
25024;DHT22;13033;50.936;5.334;2022-11-14T09:23:33;8.50;99.90
25024;DHT22;13033;50.936;5.334;2022-11-14T09:26:06;8.30;99.90
25024;DHT22;13033;50.936;5.334;2022-11-14T09:28:33;8.20;99.90
25024;DHT22;13033;50.936;5.334;2022-11-14T09:31:07;8.20;99.90
25024;DHT22;13033;50.936;5.334;2022-11-14T09:33:34;8.20;99.90
25024;DHT22;13033;50.936;5.334;2022-11-14T09:36:02;8.20;99.90
25024;DHT22;13033;50.936;5.334;2022-11-14T09:38:29;8.30;99.90
25024;DHT22;13033;50.936;5.334;2022-11-14T09:44:05;8.20;99.90
25024;DHT22;13033;50.936;5.334;2022-11-14T09:46:57;8.10;99.90
25024;DHT22;13033;50.936;5.334;2022-11-14T09:49:34;8.20;99.90
25024;DHT22;13033;50.936;5.334;2022-11-14T09:55:00;8.30;99.90
25024;DHT22;13033;50.936;5.334;2022-11-14T09:57:28;8.40;99.90
25024;DHT22;13033;50.936;5.334;2022-11-14T09:59:54;8.50;99.90
25024;DHT22;13033;50.936;5.334;2022-11-14T10:13:49;8.40;99.90
25024;DHT22;13033;50.936;5.334;2022-11-14T10:20:00;8.50;99.90
25024;DHT22;13033;50.936;5.334;2022-11-14T10:39:23;8.80;99.90
25024;DHT22;13033;50.936;5.334;2022-11-14T10:41:56;8.90;99.90
25024;DHT22;13033;50.936;5.334;2022-11-14T10:44:25;8.90;99.90
25024;DHT22;13033;50.936;5.334;2022-11-14T10:46:56;9.00;99.90
25024;DHT22;13033;50.936;5.334;2022-11-14T10:49:24;9.00;99.90
25024;DHT22;13033;50.936;5.334;2022-11-14T10:51:53;8.90;99.90
25024;DHT22;13033;50.936;5.334;2022-11-14T10:54:30;8.80;99.90
25024;DHT22;13033;50.936;5.334;2022-11-14T10:56:58;8.80;99.90
25024;DHT22;13033;50.936;5.334;2022-11-14T10:59:23;8.70;99.90
25024;DHT22;13033;50.936;5.334;2022-11-14T11:04:27;8.80;99.90
25024;DHT22;13033;50.936;5.334;2022-11-14T11:07:16;8.80;99.90
25024;DHT22;13033;50.936;5.334;2022-11-14T11:10:01;8.60;99.90
25024;DHT22;13033;50.936;5.334;2022-11-14T11:12:48;8.70;99.90
25024;DHT22;13033;50.936;5.334;2022-11-14T11:15:16;8.80;99.90
25024;DHT22;13033;50.936;5.334;2022-11-14T11:20:39;9.10;99.90
25024;DHT22;13033;50.936;5.334;2022-11-14T11:23:19;9.10;99.90
25024;DHT22;13033;50.936;5.334;2022-11-14T11:26:09;9.10;99.90
25024;DHT22;13033;50.936;5.334;2022-11-14T11:28:40;8.90;99.90
25024;DHT22;13033;50.936;5.334;2022-11-14T11:31:08;9.10;99.90
25024;DHT22;13033;50.936;5.334;2022-11-14T11:33:35;9.20;99.90
25024;DHT22;13033;50.936;5.334;2022-11-14T11:36:10;9.20;99.90
25024;DHT22;13033;50.936;5.334;2022-11-14T11:38:36;9.40;99.90
25024;DHT22;13033;50.936;5.334;2022-11-14T11:43:59;9.40;99.90
25024;DHT22;13033;50.936;5.334;2022-11-14T11:46:45;9.50;99.90
25024;DHT22;13033;50.936;5.334;2022-11-14T11:51:55;9.40;99.90
25024;DHT22;13033;50.936;5.334;2022-11-14T11:54:29;9.30;99.90
25024;DHT22;13033;50.936;5.334;2022-11-14T11:56:59;9.30;99.90
25024;DHT22;13033;50.936;5.334;2022-11-14T12:02:00;9.60;99.90
25024;DHT22;13033;50.936;5.334;2022-11-14T12:04:29;9.80;99.90
25024;DHT22;13033;50.936;5.334;2022-11-14T12:07:09;9.90;99.90
25024;DHT22;13033;50.936;5.334;2022-11-14T12:09:39;9.90;99.90
25024;DHT22;13033;50.936;5.334;2022-11-14T12:12:24;9.90;99.90
25024;DHT22;13033;50.936;5.334;2022-11-14T12:17:36;9.80;99.90
25024;DHT22;13033;50.936;5.334;2022-11-14T12:28:23;10.40;99.90
25024;DHT22;13033;50.936;5.334;2022-11-14T12:30:56;10.30;99.90
25024;DHT22;13033;50.936;5.334;2022-11-14T12:33:28;10.40;99.90
25024;DHT22;13033;50.936;5.334;2022-11-14T12:36:03;10.40;99.90
25024;DHT22;13033;50.936;5.334;2022-11-14T12:38:41;10.30;99.90
25024;DHT22;13033;50.936;5.334;2022-11-14T12:41:08;10.20;99.90
25024;DHT22;13033;50.936;5.334;2022-11-14T12:43:41;10.20;99.90
25024;DHT22;13033;50.936;5.334;2022-11-14T12:46:08;10.30;99.90
25024;DHT22;13033;50.936;5.334;2022-11-14T12:48:45;10.30;99.90
25024;DHT22;13033;50.936;5.334;2022-11-14T12:53:55;10.50;99.90
25024;DHT22;13033;50.936;5.334;2022-11-14T12:58:57;10.70;99.90
25024;DHT22;13033;50.936;5.334;2022-11-14T13:12:29;10.90;99.90
25024;DHT22;13033;50.936;5.334;2022-11-14T13:15:32;10.70;99.90
25024;DHT22;13033;50.936;5.334;2022-11-14T13:21:13;10.60;99.90
25024;DHT22;13033;50.936;5.334;2022-11-14T13:23:59;10.50;99.90
25024;DHT22;13033;50.936;5.334;2022-11-14T13:28:51;10.50;99.90
25024;DHT22;13033;50.936;5.334;2022-11-14T13:31:21;10.20;99.90
25024;DHT22;13033;50.936;5.334;2022-11-14T13:33:51;10.10;99.90
25024;DHT22;13033;50.936;5.334;2022-11-14T13:42:04;9.90;99.90
25024;DHT22;13033;50.936;5.334;2022-11-14T13:52:11;9.60;99.90
25024;DHT22;13033;50.936;5.334;2022-11-14T13:54:47;9.60;99.90
25024;DHT22;13033;50.936;5.334;2022-11-14T14:00:15;9.50;99.90
25024;DHT22;13033;50.936;5.334;2022-11-14T14:14:08;9.60;99.90
25024;DHT22;13033;50.936;5.334;2022-11-14T14:19:10;9.90;99.90
25024;DHT22;13033;50.936;5.334;2022-11-14T14:30:09;9.60;99.90
25024;DHT22;13033;50.936;5.334;2022-11-14T14:32:36;9.50;99.90
25024;DHT22;13033;50.936;5.334;2022-11-14T14:35:25;9.50;99.90
25024;DHT22;13033;50.936;5.334;2022-11-14T14:37:53;9.30;99.90
25024;DHT22;13033;50.936;5.334;2022-11-14T14:40:27;9.40;99.90
25024;DHT22;13033;50.936;5.334;2022-11-14T14:42:56;9.40;99.90
25024;DHT22;13033;50.936;5.334;2022-11-14T14:45:23;9.60;99.90
25024;DHT22;13033;50.936;5.334;2022-11-14T14:48:17;9.60;99.90
25024;DHT22;13033;50.936;5.334;2022-11-14T14:50:53;9.60;99.90
25024;DHT22;13033;50.936;5.334;2022-11-14T14:53:25;9.60;99.90
25024;DHT22;13033;50.936;5.334;2022-11-14T14:58:29;9.50;99.90
25024;DHT22;13033;50.936;5.334;2022-11-14T15:03:34;9.30;99.90
25024;DHT22;13033;50.936;5.334;2022-11-14T15:06:03;9.30;99.90
25024;DHT22;13033;50.936;5.334;2022-11-14T15:08:34;9.40;99.90
25024;DHT22;13033;50.936;5.334;2022-11-14T15:11:01;9.40;99.90
25024;DHT22;13033;50.936;5.334;2022-11-14T15:13:29;9.40;99.90
25024;DHT22;13033;50.936;5.334;2022-11-14T15:15:55;9.50;99.90
25024;DHT22;13033;50.936;5.334;2022-11-14T15:18:30;9.50;99.90
25024;DHT22;13033;50.936;5.334;2022-11-14T15:21:16;9.40;99.90
25024;DHT22;13033;50.936;5.334;2022-11-14T15:24:15;9.30;99.90
25024;DHT22;13033;50.936;5.334;2022-11-14T15:26:46;9.60;99.90
25024;DHT22;13033;50.936;5.334;2022-11-14T15:29:22;9.30;99.90
25024;DHT22;13033;50.936;5.334;2022-11-14T15:32:00;9.20;99.90
25024;DHT22;13033;50.936;5.334;2022-11-14T15:34:31;9.10;99.90
25024;DHT22;13033;50.936;5.334;2022-11-14T15:39:36;9.10;99.90
25024;DHT22;13033;50.936;5.334;2022-11-14T15:42:34;9.20;99.90
25024;DHT22;13033;50.936;5.334;2022-11-14T15:44:59;9.00;99.90
25024;DHT22;13033;50.936;5.334;2022-11-14T15:47:28;9.00;99.90
25024;DHT22;13033;50.936;5.334;2022-11-14T15:50:28;9.10;99.90
25024;DHT22;13033;50.936;5.334;2022-11-14T15:53:04;9.00;99.90
25024;DHT22;13033;50.936;5.334;2022-11-14T15:55:30;9.20;99.90
25024;DHT22;13033;50.936;5.334;2022-11-14T15:57:56;9.10;99.90
25024;DHT22;13033;50.936;5.334;2022-11-14T16:00:22;8.90;99.90
25024;DHT22;13033;50.936;5.334;2022-11-14T16:02:51;9.10;99.90
25024;DHT22;13033;50.936;5.334;2022-11-14T16:05:20;9.00;99.90
25024;DHT22;13033;50.936;5.334;2022-11-14T16:07:48;8.90;99.90
25024;DHT22;13033;50.936;5.334;2022-11-14T16:10:16;8.90;99.90
25024;DHT22;13033;50.936;5.334;2022-11-14T16:12:42;8.80;99.90
25024;DHT22;13033;50.936;5.334;2022-11-14T16:15:08;8.70;99.90
25024;DHT22;13033;50.936;5.334;2022-11-14T16:17:38;8.50;99.90
25024;DHT22;13033;50.936;5.334;2022-11-14T16:20:06;8.50;99.90
25024;DHT22;13033;50.936;5.334;2022-11-14T16:22:32;8.50;99.90
25024;DHT22;13033;50.936;5.334;2022-11-14T16:24:59;8.50;99.90
25024;DHT22;13033;50.936;5.334;2022-11-14T16:27:25;8.50;99.90
25024;DHT22;13033;50.936;5.334;2022-11-14T16:29:51;8.50;99.90
25024;DHT22;13033;50.936;5.334;2022-11-14T16:32:17;8.40;99.90
25024;DHT22;13033;50.936;5.334;2022-11-14T16:34:43;8.30;99.90
25024;DHT22;13033;50.936;5.334;2022-11-14T16:37:13;8.20;99.90
25024;DHT22;13033;50.936;5.334;2022-11-14T16:39:39;8.30;99.90
25024;DHT22;13033;50.936;5.334;2022-11-14T16:42:04;8.20;99.90
25024;DHT22;13033;50.936;5.334;2022-11-14T16:44:31;8.20;99.90
25024;DHT22;13033;50.936;5.334;2022-11-14T16:46:57;8.20;99.90
25024;DHT22;13033;50.936;5.334;2022-11-14T16:49:23;8.20;99.90
25024;DHT22;13033;50.936;5.334;2022-11-14T16:51:50;8.10;99.90
25024;DHT22;13033;50.936;5.334;2022-11-14T16:54:17;8.10;99.90
25024;DHT22;13033;50.936;5.334;2022-11-14T16:56:43;8.10;99.90
25024;DHT22;13033;50.936;5.334;2022-11-14T16:59:09;8.20;99.90
25024;DHT22;13033;50.936;5.334;2022-11-14T17:01:35;8.20;99.90
25024;DHT22;13033;50.936;5.334;2022-11-14T17:04:01;8.30;99.90
25024;DHT22;13033;50.936;5.334;2022-11-14T17:06:28;8.40;99.90
25024;DHT22;13033;50.936;5.334;2022-11-14T17:08:58;8.40;99.90
25024;DHT22;13033;50.936;5.334;2022-11-14T17:11:25;8.50;99.90
25024;DHT22;13033;50.936;5.334;2022-11-14T17:13:50;8.60;99.90
25024;DHT22;13033;50.936;5.334;2022-11-14T17:16:16;8.70;99.90
25024;DHT22;13033;50.936;5.334;2022-11-14T17:18:42;8.70;99.90
25024;DHT22;13033;50.936;5.334;2022-11-14T17:21:10;8.90;99.90
25024;DHT22;13033;50.936;5.334;2022-11-14T17:23:35;9.00;99.90
25024;DHT22;13033;50.936;5.334;2022-11-14T17:26:05;9.00;99.90
25024;DHT22;13033;50.936;5.334;2022-11-14T17:28:32;9.00;99.90
25024;DHT22;13033;50.936;5.334;2022-11-14T17:30:58;9.20;99.90
25024;DHT22;13033;50.936;5.334;2022-11-14T17:33:23;9.30;99.90
25024;DHT22;13033;50.936;5.334;2022-11-14T17:35:49;9.40;99.90
25024;DHT22;13033;50.936;5.334;2022-11-14T17:38:15;9.30;99.90
25024;DHT22;13033;50.936;5.334;2022-11-14T17:40:40;9.20;99.90
25024;DHT22;13033;50.936;5.334;2022-11-14T17:43:06;9.40;99.90
25024;DHT22;13033;50.936;5.334;2022-11-14T17:45:31;9.30;99.90
25024;DHT22;13033;50.936;5.334;2022-11-14T17:47:57;9.20;99.90
25024;DHT22;13033;50.936;5.334;2022-11-14T17:50:23;9.20;99.90
25024;DHT22;13033;50.936;5.334;2022-11-14T17:52:48;9.20;99.90
25024;DHT22;13033;50.936;5.334;2022-11-14T17:55:14;9.20;99.90
25024;DHT22;13033;50.936;5.334;2022-11-14T17:57:40;9.20;99.90
25024;DHT22;13033;50.936;5.334;2022-11-14T18:00:06;8.80;99.90
25024;DHT22;13033;50.936;5.334;2022-11-14T18:02:32;8.60;99.90
25024;DHT22;13033;50.936;5.334;2022-11-14T18:04:58;8.40;99.90
25024;DHT22;13033;50.936;5.334;2022-11-14T18:07:24;8.30;99.90
25024;DHT22;13033;50.936;5.334;2022-11-14T18:09:49;8.40;99.90
25024;DHT22;13033;50.936;5.334;2022-11-14T18:12:15;8.60;99.90